Date,TemperatureHighF,TemperatureAvgF,TemperatureLowF,DewpointHighF,DewpointAvgF,DewpointLowF,HumidityHigh,HumidityAvg,HumidityLow,PressureMaxIn,PressureMinIn,WindSpeedMaxMPH,WindSpeedAvgMPH,GustSpeedMaxMPH,PrecipitationSumIn
2013-3-1,0.0,0.0,0.0,0.0,0.0,0.0,0,0,100,29.83,29.68,15,6,19,0.00
2013-3-2,0.0,0.0,0.0,0.0,0.0,0.0,0,0,100,29.85,29.77,17,7,18,0.00
2013-3-3,0.0,0.0,0.0,0.0,0.0,0.0,0,0,100,29.83,29.74,24,8,24,0.00
2013-3-4,0.0,0.0,0.0,0.0,0.0,0.0,0,0,100,30.00,29.83,28,11,28,0.00
2013-3-5,0.0,0.0,0.0,0.0,0.0,0.0,0,0,100,30.09,29.91,17,7,20,0.00
2013-3-6,0.0,0.0,0.0,0.0,0.0,0.0,0,0,100,29.91,29.53,42,19,43,1.30
2013-3-7,0.0,0.0,0.0,0.0,0.0,0.0,0,0,100,30.09,29.83,24,9,26,0.04
2013-3-8,0.0,0.0,0.0,0.0,0.0,0.0,0,0,100,30.18,30.03,20,8,20,0.04
2013-3-9,0.0,0.0,0.0,0.0,0.0,0.0,0,0,100,30.33,30.18,17,5,22,0.00
2013-3-10,0.0,0.0,0.0,0.0,0.0,0.0,0,0,100,30.39,30.30,12,5,12,0.00
2013-3-11,0.0,0.0,0.0,0.0,0.0,0.0,0,0,100,30.33,30.09,13,4,15,0.00
2013-3-12,0.0,0.0,0.0,0.0,0.0,0.0,0,0,100,30.09,29.74,27,11,28,0.00
2013-3-13,0.0,0.0,0.0,0.0,0.0,0.0,0,0,100,29.97,29.88,26,7,29,0.04
2013-3-14,0.0,0.0,0.0,0.0,0.0,0.0,0,0,100,30.06,29.97,28,13,31,0.00
2013-3-15,0.0,0.0,0.0,0.0,0.0,0.0,0,0,100,30.09,29.80,22,8,26,0.00
2013-3-16,0.0,0.0,0.0,0.0,0.0,0.0,0,0,100,29.91,29.74,16,7,16,0.00
2013-3-17,0.0,0.0,0.0,0.0,0.0,0.0,0,0,100,30.30,29.91,14,5,14,0.00
2013-3-18,0.0,0.0,0.0,0.0,0.0,0.0,0,0,100,30.36,29.88,22,10,22,0.47
2013-3-19,0.0,0.0,0.0,0.0,0.0,0.0,0,0,100,29.88,29.74,19,5,21,0.16
2013-3-20,0.0,0.0,0.0,0.0,0.0,0.0,0,0,100,30.00,29.83,23,9,25,0.00
2013-3-21,0.0,0.0,0.0,0.0,0.0,0.0,0,0,100,29.85,29.71,17,6,19,0.04
2013-3-22,0.0,0.0,0.0,0.0,0.0,0.0,0,0,100,29.97,29.83,28,10,28,0.00
2013-3-23,0.0,0.0,0.0,0.0,0.0,0.0,0,0,100,30.00,29.91,27,8,28,0.00
2013-3-24,0.0,0.0,0.0,0.0,0.0,0.0,0,0,100,30.00,29.68,17,4,20,0.00
2013-3-25,0.0,0.0,0.0,0.0,0.0,0.0,0,0,100,29.71,29.41,22,10,23,0.75
2013-3-26,0.0,0.0,0.0,0.0,0.0,0.0,0,0,100,29.94,29.65,18,7,18,0.00
2013-3-27,0.0,0.0,0.0,0.0,0.0,0.0,0,0,100,30.06,29.91,26,9,28,0.00
2013-3-28,0.0,0.0,0.0,0.0,0.0,0.0,0,0,100,30.18,30.03,18,8,20,0.00
2013-3-29,0.0,0.0,0.0,0.0,0.0,0.0,0,0,100,30.24,30.15,13,6,13,0.00